Time;durP1;ratioP1;P1;durP2;ratioP2;P2;SDS_P1;SDS_P2;PMS_P1;PMS_P2;Temp;Humidity;BMP_temperature;BMP_pressure;BME280_temperature;BME280_humidity;BME280_pressure;Samples;Min_cycle;Max_cycle;Signal;HPM_P1;HPM_P2
2022/12/12 00:01:30;;;;;;;0.10;0.10;;;3.00;99.90;;;;;;5110656;28;20098;-77
2022/12/12 00:03:56;;;;;;;0.43;0.43;;;2.90;99.90;;;;;;5106369;28;20019;-76
2022/12/12 00:06:22;;;;;;;0.50;0.50;;;2.90;99.90;;;;;;5100361;28;20035;-76
2022/12/12 00:08:49;;;;;;;0.10;0.10;;;2.90;99.90;;;;;;5123017;28;20680;-75
2022/12/12 00:11:16;;;;;;;0.10;0.10;;;2.90;99.90;;;;;;5123806;28;20055;-76
2022/12/12 00:13:43;;;;;;;0.10;0.10;;;2.70;99.90;;;;;;5106162;28;20084;-76
2022/12/12 00:16:09;;;;;;;0.10;0.10;;;2.50;99.90;;;;;;5121861;27;20035;-76
2022/12/12 00:18:35;;;;;;;0.40;0.40;;;2.60;99.90;;;;;;5106243;28;20520;-76
2022/12/12 00:21:08;;;;;;;0.52;0.52;;;2.40;99.90;;;;;;5126666;28;20016;-76
2022/12/12 00:23:34;;;;;;;0.10;0.10;;;2.60;99.90;;;;;;5092821;28;20046;-76
2022/12/12 00:26:03;;;;;;;2.28;2.17;;;2.50;99.90;;;;;;5122579;28;20024;-76
2022/12/12 00:28:29;;;;;;;14.80;6.75;;;2.40;99.90;;;;;;5131595;28;20011;-76
2022/12/12 00:30:55;;;;;;;0.98;0.98;;;2.50;99.90;;;;;;5133662;28;20054;-79
2022/12/12 00:33:21;;;;;;;0.95;0.95;;;2.40;99.90;;;;;;5122032;28;20065;-76
2022/12/12 00:35:54;;;;;;;0.68;0.68;;;2.30;99.90;;;;;;5114063;28;20020;-76
2022/12/12 00:38:27;;;;;;;0.38;0.38;;;2.40;99.90;;;;;;5130501;28;20041;-77
2022/12/12 00:41:17;;;;;;;0.10;0.10;;;2.30;99.90;;;;;;5132938;28;20016;-76
2022/12/12 00:43:44;;;;;;;0.10;0.10;;;2.30;99.90;;;;;;5128671;28;20031;-76
2022/12/12 00:46:23;;;;;;;0.10;0.10;;;2.30;99.90;;;;;;5133187;28;20057;-75
2022/12/12 00:48:54;;;;;;;2.95;2.85;;;2.30;99.90;;;;;;5107935;28;20661;-76
2022/12/12 00:51:42;;;;;;;0.10;0.10;;;2.30;99.90;;;;;;5100422;28;20024;-79
2022/12/12 00:54:09;;;;;;;0.10;0.10;;;2.30;99.90;;;;;;5125674;28;20027;-75
2022/12/12 00:56:34;;;;;;;0.10;0.10;;;2.30;99.90;;;;;;5110602;28;20016;-75
2022/12/12 00:59:06;;;;;;;0.15;0.15;;;2.20;99.90;;;;;;5123652;28;20026;-75
2022/12/12 01:01:44;;;;;;;0.10;0.10;;;2.10;99.90;;;;;;5110741;28;20039;-75
2022/12/12 01:04:10;;;;;;;0.10;0.10;;;2.00;99.90;;;;;;5122883;28;20045;-75
2022/12/12 01:06:35;;;;;;;1.42;1.42;;;1.90;99.90;;;;;;5106287;28;20067;-76
2022/12/12 01:09:01;;;;;;;0.20;0.20;;;1.90;99.90;;;;;;5121441;28;20015;-75
2022/12/12 01:11:27;;;;;;;0.20;0.20;;;1.80;99.90;;;;;;5123533;28;20073;-76
2022/12/12 01:13:53;;;;;;;0.10;0.10;;;1.80;99.90;;;;;;5125464;28;20607;-75
2022/12/12 01:16:20;;;;;;;0.20;0.20;;;1.70;99.90;;;;;;5120403;28;20032;-75
2022/12/12 01:18:45;;;;;;;0.10;0.10;;;1.60;99.90;;;;;;5122134;28;20524;-75
2022/12/12 01:21:15;;;;;;;0.10;0.10;;;1.60;99.90;;;;;;5124749;28;20015;-75
2022/12/12 01:23:41;;;;;;;0.17;0.17;;;1.70;99.90;;;;;;5121886;28;20034;-76
2022/12/12 01:26:12;;;;;;;0.10;0.10;;;1.70;99.90;;;;;;5122878;28;20580;-75
2022/12/12 01:28:38;;;;;;;0.25;0.25;;;1.70;99.90;;;;;;5113239;28;20716;-76
2022/12/12 01:31:05;;;;;;;0.10;0.10;;;1.70;99.90;;;;;;5117970;28;20677;-76
2022/12/12 01:33:31;;;;;;;0.20;0.20;;;1.70;99.90;;;;;;5116351;28;20098;-76
2022/12/12 01:35:58;;;;;;;0.10;0.10;;;1.80;99.90;;;;;;5109093;28;20730;-75
2022/12/12 01:38:24;;;;;;;0.30;0.30;;;1.70;99.90;;;;;;5116907;28;20019;-75
2022/12/12 01:41:07;;;;;;;0.10;0.10;;;1.80;99.90;;;;;;5120841;28;20024;-76
2022/12/12 01:44:00;;;;;;;0.20;0.20;;;1.80;99.90;;;;;;5120401;28;20053;-75
2022/12/12 01:46:32;;;;;;;0.10;0.10;;;1.80;99.90;;;;;;5126523;28;20011;-76
2022/12/12 01:49:19;;;;;;;0.10;0.10;;;1.80;99.90;;;;;;5119706;28;20022;-75
2022/12/12 01:51:46;;;;;;;0.10;0.10;;;1.80;99.90;;;;;;5120137;28;20124;-75
2022/12/12 01:54:28;;;;;;;0.20;0.20;;;1.70;99.90;;;;;;5120912;28;20015;-76
2022/12/12 01:57:14;;;;;;;0.10;0.10;;;1.70;99.90;;;;;;5123746;28;20023;-75
2022/12/12 01:59:41;;;;;;;0.10;0.10;;;1.70;99.90;;;;;;5121925;28;20077;-75
2022/12/12 02:02:11;;;;;;;0.00;0.00;;;1.70;99.90;;;;;;5124748;28;20091;-76
2022/12/12 02:04:37;;;;;;;0.10;0.10;;;1.70;99.90;;;;;;5122011;28;20078;-75
2022/12/12 02:07:03;;;;;;;0.20;0.20;;;1.80;99.90;;;;;;5121277;28;20030;-75
2022/12/12 02:09:37;;;;;;;0.10;0.10;;;1.80;99.90;;;;;;5111656;28;20062;-75
2022/12/12 02:12:04;;;;;;;0.10;0.10;;;1.70;99.90;;;;;;5110039;28;20523;-74
2022/12/12 02:14:37;;;;;;;0.10;0.10;;;1.70;99.90;;;;;;5103757;28;20026;-75
2022/12/12 02:17:25;;;;;;;0.10;0.10;;;1.80;99.90;;;;;;5121544;28;20044;-75
2022/12/12 02:20:27;;;;;;;0.10;0.10;;;1.70;99.90;;;;;;5121318;28;20022;-75
2022/12/12 02:23:01;;;;;;;0.10;0.10;;;1.60;99.90;;;;;;5120739;28;20087;-75
2022/12/12 02:26:04;;;;;;;0.20;0.20;;;1.60;99.90;;;;;;5121148;28;20015;-76
2022/12/12 02:29:09;;;;;;;0.10;0.10;;;1.70;99.90;;;;;;5122969;28;20016;-76
2022/12/12 02:31:49;;;;;;;0.10;0.10;;;1.70;99.90;;;;;;5113112;28;20016;-75
2022/12/12 02:34:15;;;;;;;0.20;0.20;;;1.60;99.90;;;;;;5119763;28;20509;-75
2022/12/12 02:36:47;;;;;;;0.15;0.15;;;1.60;99.90;;;;;;5112591;28;20035;-76
2022/12/12 02:39:26;;;;;;;0.10;0.10;;;1.50;99.90;;;;;;5117047;28;20077;-75
2022/12/12 02:42:42;;;;;;;0.10;0.10;;;1.30;99.90;;;;;;5117440;28;20102;-75
2022/12/12 02:45:25;;;;;;;0.15;0.15;;;1.20;99.90;;;;;;5015042;28;20133;-75
2022/12/12 02:47:56;;;;;;;0.20;0.20;;;1.20;99.90;;;;;;4996403;28;20037;-76
2022/12/12 02:50:26;;;;;;;0.10;0.10;;;1.20;99.90;;;;;;5018620;28;20026;-75
2022/12/12 02:52:51;;;;;;;0.10;0.10;;;1.20;99.90;;;;;;5017842;28;20021;-75
2022/12/12 02:55:18;;;;;;;0.20;0.20;;;1.20;99.90;;;;;;4999101;28;20026;-75
2022/12/12 02:57:44;;;;;;;0.10;0.10;;;1.20;99.90;;;;;;5009690;28;20018;-75
2022/12/12 03:00:18;;;;;;;0.10;0.10;;;1.10;99.90;;;;;;5016517;28;20038;-75
2022/12/12 03:09:50;;;;;;;0.20;0.20;;;0.20;99.90;;;;;;4962800;28;20052;-75
2022/12/12 03:12:23;;;;;;;0.10;0.10;;;0.70;99.90;;;;;;4962630;29;20024;-74
2022/12/12 03:14:54;;;;;;;0.10;0.10;;;1.00;99.90;;;;;;4961867;29;20043;-74
2022/12/12 03:17:28;;;;;;;0.10;0.10;;;0.70;99.90;;;;;;4959672;29;20111;-74
2022/12/12 03:20:36;;;;;;;0.50;0.50;;;1.00;99.90;;;;;;4986363;28;20057;-74
2022/12/12 03:23:11;;;;;;;0.25;0.25;;;0.90;99.90;;;;;;5016569;28;20042;-74
2022/12/12 03:25:57;;;;;;;0.20;0.20;;;0.90;99.90;;;;;;5010465;28;20254;-76
2022/12/12 03:28:32;;;;;;;0.10;0.10;;;0.80;99.90;;;;;;5023936;28;20002;-75
2022/12/12 03:31:04;;;;;;;0.10;0.10;;;0.80;99.90;;;;;;5017013;28;20026;-75
2022/12/12 03:34:03;;;;;;;0.10;0.10;;;0.80;99.90;;;;;;5017060;28;20096;-74
2022/12/12 03:37:01;;;;;;;0.17;0.17;;;0.80;99.90;;;;;;5013670;28;20034;-75
2022/12/12 03:39:37;;;;;;;0.15;0.15;;;0.80;99.90;;;;;;5014472;28;20766;-74
2022/12/12 03:42:31;;;;;;;0.10;0.10;;;0.80;99.90;;;;;;5038376;28;20044;-75
2022/12/12 03:45:11;;;;;;;0.10;0.10;;;0.90;99.90;;;;;;5084779;28;20033;-74
2022/12/12 03:47:46;;;;;;;0.10;0.10;;;0.90;99.90;;;;;;5084708;28;20052;-77
2022/12/12 03:50:21;;;;;;;0.10;0.10;;;1.00;99.90;;;;;;5064411;28;20051;-75
2022/12/12 03:53:01;;;;;;;1.55;1.52;;;1.00;99.90;;;;;;5074570;28;20112;-74
2022/12/12 03:55:45;;;;;;;0.10;0.10;;;1.00;99.90;;;;;;5079869;28;20084;-74
2022/12/12 03:58:31;;;;;;;0.10;0.10;;;1.40;99.90;;;;;;5098987;28;20036;-75
2022/12/12 04:01:08;;;;;;;0.10;0.10;;;1.20;99.90;;;;;;5108203;28;20020;-75
2022/12/12 04:04:02;;;;;;;0.10;0.10;;;1.10;99.90;;;;;;5107372;28;20044;-74
2022/12/12 04:06:36;;;;;;;2.90;2.70;;;1.90;99.90;;;;;;5108291;28;20020;-75
2022/12/12 04:12:58;;;;;;;0.20;0.20;;;1.00;99.90;;;;;;5126460;28;20580;-74
2022/12/12 04:16:02;;;;;;;0.20;0.20;;;1.00;99.90;;;;;;5113555;28;20019;-74
2022/12/12 04:19:01;;;;;;;1.75;1.75;;;1.00;99.90;;;;;;5124291;28;20045;-74
2022/12/12 04:24:40;;;;;;;0.10;0.10;;;0.90;99.90;;;;;;5122588;28;20066;-75
2022/12/12 04:27:11;;;;;;;0.20;0.20;;;0.80;99.90;;;;;;5126066;28;20034;-74
2022/12/12 04:29:46;;;;;;;0.10;0.10;;;0.80;99.90;;;;;;5126347;28;20027;-74
2022/12/12 04:32:16;;;;;;;0.13;0.13;;;0.80;99.90;;;;;;5090281;28;20024;-75
2022/12/12 04:35:14;;;;;;;0.10;0.10;;;3.00;99.90;;;;;;5115760;28;20031;-74
2022/12/12 04:38:05;;;;;;;0.10;0.10;;;0.80;99.90;;;;;;5127242;28;20022;-74
2022/12/12 04:40:38;;;;;;;0.20;0.20;;;0.60;99.90;;;;;;5121561;28;20046;-74
2022/12/12 04:43:25;;;;;;;0.10;0.10;;;0.60;99.90;;;;;;5124030;28;20123;-74
2022/12/12 04:45:57;;;;;;;0.10;0.10;;;0.60;99.90;;;;;;5113987;28;20044;-75
2022/12/12 04:48:47;;;;;;;0.15;0.15;;;0.60;99.90;;;;;;5122785;28;20100;-74
2022/12/12 04:51:20;;;;;;;0.17;0.17;;;0.60;99.90;;;;;;5121857;28;20023;-75
2022/12/12 04:54:18;;;;;;;0.10;0.10;;;0.70;99.90;;;;;;5115014;28;20035;-75
2022/12/12 04:56:50;;;;;;;0.20;0.20;;;0.60;99.90;;;;;;5120322;28;20832;-75
2022/12/12 04:59:17;;;;;;;0.20;0.20;;;0.60;99.90;;;;;;5110000;28;20023;-75
2022/12/12 05:01:47;;;;;;;0.10;0.10;;;0.60;99.90;;;;;;5116106;28;20024;-75
2022/12/12 05:04:21;;;;;;;0.20;0.20;;;0.70;99.90;;;;;;5110260;28;20075;-75
2022/12/12 05:06:55;;;;;;;0.20;0.20;;;0.70;99.90;;;;;;5122587;28;20018;-75
2022/12/12 05:09:21;;;;;;;0.10;0.10;;;0.70;99.90;;;;;;5103822;28;20020;-75
2022/12/12 05:11:52;;;;;;;0.20;0.20;;;0.70;99.90;;;;;;5122761;28;20066;-75
2022/12/12 05:14:18;;;;;;;0.10;0.10;;;0.70;99.90;;;;;;5105786;28;20604;-75
2022/12/12 05:16:50;;;;;;;0.10;0.10;;;0.70;99.90;;;;;;5111938;28;20039;-75
2022/12/12 05:19:16;;;;;;;0.17;0.17;;;;;;;;;;5123021;28;20015;-75
2022/12/12 05:21:46;;;;;;;0.20;0.20;;;0.70;99.90;;;;;;5126370;28;20337;-74
2022/12/12 05:24:12;;;;;;;0.20;0.20;;;0.70;99.90;;;;;;5122132;28;20020;-75
2022/12/12 05:26:39;;;;;;;0.10;0.10;;;0.70;99.90;;;;;;5113472;28;20020;-76
2022/12/12 05:29:05;;;;;;;0.17;0.17;;;0.60;99.90;;;;;;5107527;28;20016;-75
2022/12/12 05:31:38;;;;;;;0.20;0.20;;;0.60;99.90;;;;;;5131059;28;20058;-75
2022/12/12 05:34:04;;;;;;;0.10;0.10;;;0.60;99.90;;;;;;5091647;28;20023;-75
2022/12/12 05:36:30;;;;;;;0.10;0.10;;;0.60;99.90;;;;;;5115653;28;20020;-75
2022/12/12 05:39:04;;;;;;;0.10;0.10;;;0.70;99.90;;;;;;5116569;28;20022;-74
2022/12/12 05:41:30;;;;;;;0.10;0.10;;;0.70;99.90;;;;;;5130770;28;20011;-75
2022/12/12 05:43:56;;;;;;;0.10;0.10;;;0.70;99.90;;;;;;5110822;28;20027;-75
2022/12/12 05:46:22;;;;;;;0.10;0.10;;;0.70;99.90;;;;;;5123190;28;20015;-74
2022/12/12 05:48:51;;;;;;;0.20;0.20;;;0.60;99.90;;;;;;5128054;28;20018;-74
2022/12/12 05:51:28;;;;;;;0.10;0.10;;;0.60;99.90;;;;;;5110811;28;20022;-75
2022/12/12 05:53:55;;;;;;;0.13;0.13;;;0.70;99.90;;;;;;5125680;28;20043;-75
2022/12/12 05:56:21;;;;;;;0.17;0.17;;;0.70;99.90;;;;;;5107934;28;20580;-75
2022/12/12 05:58:49;;;;;;;0.20;0.20;;;0.70;99.90;;;;;;5094895;28;20039;-75
2022/12/12 06:01:28;;;;;;;0.30;0.30;;;0.70;99.90;;;;;;5109670;28;20034;-75
2022/12/12 06:03:53;;;;;;;0.20;0.20;;;0.60;99.90;;;;;;5107796;28;20023;-75
2022/12/12 06:06:43;;;;;;;0.10;0.10;;;0.50;99.90;;;;;;5118457;28;20055;-75
2022/12/12 06:09:10;;;;;;;0.20;0.20;;;0.60;99.90;;;;;;5104757;28;20023;-75
2022/12/12 06:11:49;;;;;;;0.10;0.10;;;0.60;99.90;;;;;;5118496;28;20038;-75
2022/12/12 06:14:24;;;;;;;0.10;0.10;;;0.50;99.90;;;;;;5109578;28;20020;-75
2022/12/12 06:16:54;;;;;;;0.10;0.10;;;0.50;99.90;;;;;;5112451;28;20066;-74
2022/12/12 06:19:20;;;;;;;0.20;0.20;;;0.40;99.90;;;;;;5105258;28;20031;-76
2022/12/12 06:21:46;;;;;;;0.20;0.20;;;0.40;99.90;;;;;;5119568;28;20034;-75
2022/12/12 06:24:12;;;;;;;0.20;0.20;;;0.40;99.90;;;;;;5114510;28;20015;-74
2022/12/12 06:26:38;;;;;;;0.20;0.20;;;0.30;99.90;;;;;;5122785;28;20087;-77
2022/12/12 06:29:04;;;;;;;0.20;0.20;;;0.30;99.90;;;;;;5126388;28;20037;-75
2022/12/12 06:31:35;;;;;;;0.20;0.20;;;0.40;99.90;;;;;;5130239;28;20027;-74
2022/12/12 06:34:03;;;;;;;0.20;0.20;;;0.40;99.90;;;;;;5122134;28;20028;-74
2022/12/12 06:36:29;;;;;;;0.20;0.20;;;0.40;99.90;;;;;;5104927;28;20031;-74
2022/12/12 06:38:57;;;;;;;0.10;0.10;;;0.50;99.90;;;;;;5119067;28;20023;-75
2022/12/12 06:41:25;;;;;;;69.30;38.90;;;0.40;99.90;;;;;;5114145;28;20012;-75
2022/12/12 06:43:51;;;;;;;0.20;0.20;;;-0.30;99.90;;;;;;5123872;28;20020;-75
2022/12/12 06:46:24;;;;;;;0.17;0.17;;;0.30;99.90;;;;;;5123479;28;20034;-75
2022/12/12 06:48:51;;;;;;;12.67;12.07;;;0.30;99.90;;;;;;5112673;28;20020;-75
2022/12/12 06:51:24;;;;;;;0.10;0.10;;;0.30;99.90;;;;;;5096906;28;20012;-75
2022/12/12 06:53:51;;;;;;;0.20;0.20;;;0.30;99.90;;;;;;5111599;28;20028;-75
2022/12/12 06:56:31;;;;;;;0.20;0.20;;;0.30;99.90;;;;;;5114661;28;20016;-75
2022/12/12 06:58:58;;;;;;;0.13;0.13;;;0.30;99.90;;;;;;5113424;28;20035;-75
2022/12/12 07:01:24;;;;;;;0.10;0.10;;;0.30;99.90;;;;;;5122364;28;20020;-76
2022/12/12 07:03:59;;;;;;;0.10;0.10;;;0.50;99.90;;;;;;5118832;28;20075;-75
2022/12/12 07:06:25;;;;;;;0.20;0.20;;;0.30;99.90;;;;;;5113646;28;20018;-75
2022/12/12 07:08:51;;;;;;;0.77;0.77;;;0.30;99.90;;;;;;5131842;28;20662;-75
2022/12/12 07:11:21;;;;;;;0.20;0.20;;;0.40;99.90;;;;;;5116683;28;20027;-75
2022/12/12 07:13:48;;;;;;;0.10;0.10;;;0.40;99.90;;;;;;5112315;28;20053;-75
2022/12/12 07:16:19;;;;;;;0.10;0.10;;;0.40;99.90;;;;;;5106769;28;20040;-73
2022/12/12 07:18:50;;;;;;;0.20;0.20;;;0.40;99.90;;;;;;5112979;28;20070;-74
2022/12/12 07:21:19;;;;;;;0.20;0.20;;;0.40;99.90;;;;;;5124630;28;20106;-75
2022/12/12 07:23:45;;;;;;;0.20;0.20;;;0.40;99.90;;;;;;5112991;28;20061;-75
2022/12/12 07:26:13;;;;;;;1.30;1.27;;;0.50;99.90;;;;;;5119294;28;20511;-74
2022/12/12 07:28:40;;;;;;;0.20;0.20;;;;;;;;;;5107104;28;20020;-75
2022/12/12 07:31:11;;;;;;;0.10;0.10;;;0.70;99.90;;;;;;5119345;28;20015;-75
2022/12/12 07:33:41;;;;;;;0.10;0.10;;;0.80;99.90;;;;;;5099066;28;20019;-74
2022/12/12 07:36:08;;;;;;;0.20;0.20;;;0.80;99.90;;;;;;5110343;28;20686;-78
2022/12/12 07:38:35;;;;;;;0.10;0.10;;;0.80;99.90;;;;;;5122243;28;20129;-75
2022/12/12 07:41:08;;;;;;;0.20;0.20;;;0.80;99.90;;;;;;5115494;28;20460;-75
2022/12/12 07:43:38;;;;;;;0.20;0.20;;;0.80;99.90;;;;;;5109603;28;20031;-75
2022/12/12 07:46:22;;;;;;;0.13;0.13;;;0.80;99.90;;;;;;5132843;28;20022;-74
2022/12/12 07:48:49;;;;;;;0.20;0.20;;;0.90;99.90;;;;;;5129569;28;20253;-75
2022/12/12 07:51:16;;;;;;;0.20;0.20;;;0.80;99.90;;;;;;5118773;28;20041;-74
2022/12/12 07:53:41;;;;;;;0.20;0.20;;;0.90;99.90;;;;;;5110993;28;20028;-74
2022/12/12 07:56:12;;;;;;;0.20;0.20;;;0.90;99.90;;;;;;5112444;28;20023;-74
2022/12/12 07:58:42;;;;;;;0.20;0.20;;;1.10;99.90;;;;;;5103574;28;20024;-74
2022/12/12 08:01:28;;;;;;;0.10;0.10;;;1.60;99.90;;;;;;5128410;28;20016;-75
2022/12/12 08:03:58;;;;;;;0.20;0.20;;;1.20;99.90;;;;;;5114312;28;20016;-74
2022/12/12 08:06:27;;;;;;;0.27;0.27;;;1.10;99.90;;;;;;5107285;28;20561;-75
2022/12/12 08:08:53;;;;;;;0.20;0.20;;;1.00;99.90;;;;;;5107164;28;20107;-75
2022/12/12 08:11:22;;;;;;;0.17;0.17;;;0.90;99.90;;;;;;5113512;28;20028;-74
2022/12/12 08:13:48;;;;;;;0.20;0.20;;;0.90;99.90;;;;;;5114480;28;20019;-75
2022/12/12 08:16:24;;;;;;;0.10;0.10;;;0.90;99.90;;;;;;5118077;28;20130;-74
2022/12/12 08:18:58;;;;;;;0.20;0.20;;;0.90;99.90;;;;;;5106636;28;20567;-75
2022/12/12 08:21:25;;;;;;;0.10;0.10;;;0.90;99.90;;;;;;5116424;28;20038;-75
2022/12/12 08:23:58;;;;;;;0.30;0.30;;;0.90;99.90;;;;;;5117036;28;20044;-74
2022/12/12 08:26:28;;;;;;;0.20;0.20;;;1.00;99.90;;;;;;5110717;28;20008;-75
2022/12/12 08:28:56;;;;;;;0.10;0.10;;;0.90;99.90;;;;;;5112537;28;20016;-75
2022/12/12 08:31:29;;;;;;;0.20;0.20;;;0.90;99.90;;;;;;5121721;28;20023;-76
2022/12/12 08:34:07;;;;;;;0.10;0.10;;;1.00;99.90;;;;;;5111752;28;20032;-74
2022/12/12 08:36:35;;;;;;;1.50;1.50;;;0.90;99.90;;;;;;5096957;28;20027;-74
2022/12/12 08:39:03;;;;;;;0.10;0.10;;;0.80;99.90;;;;;;5113213;28;20282;-74
2022/12/12 08:41:28;;;;;;;0.20;0.20;;;0.80;99.90;;;;;;5111680;28;20650;-75
2022/12/12 08:43:54;;;;;;;0.13;0.13;;;0.70;99.90;;;;;;5112110;28;20087;-74
2022/12/12 08:46:21;;;;;;;0.20;0.20;;;0.70;99.90;;;;;;5088623;28;20089;-74
2022/12/12 08:48:48;;;;;;;0.43;0.43;;;0.80;99.90;;;;;;5094468;28;20080;-74
2022/12/12 08:51:15;;;;;;;0.10;0.10;;;0.60;99.90;;;;;;5122487;28;20023;-74
2022/12/12 08:53:49;;;;;;;0.10;0.10;;;0.60;99.90;;;;;;5099527;28;20034;-74
2022/12/12 08:56:16;;;;;;;0.10;0.10;;;0.70;99.90;;;;;;5113933;28;20012;-75
2022/12/12 08:58:42;;;;;;;0.10;0.10;;;0.70;99.90;;;;;;5090600;28;20114;-74
2022/12/12 09:01:12;;;;;;;0.10;0.10;;;0.80;99.90;;;;;;5111001;28;20700;-73
2022/12/12 09:03:38;;;;;;;16.43;15.20;;;0.70;99.90;;;;;;5110062;28;20040;-74
2022/12/12 09:06:07;;;;;;;0.10;0.10;;;0.70;99.90;;;;;;5110190;28;20039;-75
2022/12/12 09:08:33;;;;;;;1.20;1.20;;;0.60;99.90;;;;;;5107097;28;20016;-75
2022/12/12 09:10:59;;;;;;;0.20;0.20;;;0.70;99.90;;;;;;5118056;28;20048;-75
2022/12/12 09:13:25;;;;;;;0.10;0.10;;;0.80;99.90;;;;;;5104437;28;20019;-75
2022/12/12 09:15:52;;;;;;;0.20;0.20;;;0.70;99.90;;;;;;5119287;28;20027;-75
2022/12/12 09:18:19;;;;;;;0.10;0.10;;;0.70;99.90;;;;;;5120301;28;20165;-75
2022/12/12 09:20:54;;;;;;;1.77;1.75;;;0.60;99.90;;;;;;5121961;28;20011;-75
2022/12/12 09:23:21;;;;;;;0.10;0.10;;;0.50;99.90;;;;;;5119193;28;20079;-75
2022/12/12 09:25:47;;;;;;;0.20;0.20;;;0.60;99.90;;;;;;5118577;28;20095;-76
2022/12/12 09:28:15;;;;;;;0.10;0.10;;;0.50;99.90;;;;;;5116465;28;20039;-75
2022/12/12 09:30:41;;;;;;;0.10;0.10;;;0.50;99.90;;;;;;5113316;28;20121;-74
2022/12/12 09:33:07;;;;;;;0.10;0.10;;;0.40;99.90;;;;;;5119324;28;20048;-76
2022/12/12 09:35:33;;;;;;;0.10;0.10;;;0.60;99.90;;;;;;5122832;28;20030;-75
2022/12/12 09:37:59;;;;;;;0.10;0.10;;;0.60;99.90;;;;;;5107657;28;20428;-74
2022/12/12 09:40:31;;;;;;;0.10;0.10;;;0.70;99.90;;;;;;5112821;28;20020;-75
2022/12/12 09:42:57;;;;;;;0.10;0.10;;;0.80;99.90;;;;;;5104506;28;20038;-75
2022/12/12 09:45:24;;;;;;;0.20;0.20;;;0.70;99.90;;;;;;5110518;28;20034;-74
2022/12/12 09:47:56;;;;;;;0.10;0.10;;;0.70;99.90;;;;;;5122493;28;20023;-77
2022/12/12 09:50:30;;;;;;;0.20;0.20;;;0.70;99.90;;;;;;5105528;28;20046;-75
2022/12/12 09:53:00;;;;;;;0.10;0.10;;;0.70;99.90;;;;;;5110770;28;20032;-75
2022/12/12 09:55:37;;;;;;;0.17;0.17;;;0.40;99.90;;;;;;5089878;28;20031;-74
2022/12/12 09:58:25;;;;;;;1.33;1.33;;;0.80;99.90;;;;;;5099986;28;20020;-74
2022/12/12 10:01:20;;;;;;;0.10;0.10;;;0.80;99.90;;;;;;5109033;28;20027;-74
2022/12/12 10:04:35;;;;;;;0.10;0.10;;;0.70;99.90;;;;;;5096887;28;20046;-74
2022/12/12 10:07:15;;;;;;;0.20;0.20;;;0.70;99.90;;;;;;5016992;28;20034;-75
2022/12/12 10:10:09;;;;;;;0.20;0.20;;;0.70;99.90;;;;;;5006410;28;20104;-75
2022/12/12 10:12:36;;;;;;;0.05;0.05;;;0.70;99.90;;;;;;5022223;28;20045;-74
2022/12/12 10:15:26;;;;;;;0.10;0.10;;;0.70;99.90;;;;;;5020018;28;20030;-76
2022/12/12 10:17:54;;;;;;;0.10;0.10;;;0.70;99.90;;;;;;5020352;28;20097;-75
2022/12/12 10:20:27;;;;;;;0.10;0.10;;;0.60;99.90;;;;;;5012857;28;20661;-75
2022/12/12 10:23:31;;;;;;;0.10;0.10;;;0.70;99.90;;;;;;5019077;28;20189;-77
2022/12/12 10:26:13;;;;;;;0.10;0.10;;;0.70;99.90;;;;;;4964966;29;20019;-75
2022/12/12 10:28:39;;;;;;;0.10;0.10;;;0.70;99.90;;;;;;4954968;28;20039;-75
2022/12/12 10:31:29;;;;;;;0.17;0.17;;;0.70;99.90;;;;;;4956632;29;20051;-75
2022/12/12 10:34:08;;;;;;;0.10;0.10;;;0.70;99.90;;;;;;4959865;29;20103;-75
2022/12/12 10:37:06;;;;;;;0.10;0.10;;;0.60;99.90;;;;;;4951955;28;20043;-75
2022/12/12 10:39:51;;;;;;;0.10;0.10;;;0.70;99.90;;;;;;4954155;29;20030;-74
2022/12/12 10:42:45;;;;;;;0.20;0.20;;;0.60;99.90;;;;;;4971011;28;20075;-74
2022/12/12 10:45:28;;;;;;;0.13;0.13;;;0.60;99.90;;;;;;5035933;28;20079;-75
2022/12/12 10:47:54;;;;;;;0.10;0.10;;;0.60;99.90;;;;;;5033764;28;20089;-74
2022/12/12 10:50:41;;;;;;;0.10;0.10;;;0.50;99.90;;;;;;5031918;28;20056;-75
2022/12/12 10:53:09;;;;;;;0.10;0.10;;;0.60;99.90;;;;;;5026499;28;20030;-75
2022/12/12 10:56:08;;;;;;;0.20;0.20;;;0.70;99.90;;;;;;5038310;28;20029;-74
2022/12/12 10:58:37;;;;;;;0.20;0.20;;;0.80;99.90;;;;;;5090115;28;20020;-75
2022/12/12 11:01:19;;;;;;;0.17;0.17;;;0.80;99.90;;;;;;5117824;28;20092;-77
2022/12/12 11:03:51;;;;;;;0.17;0.17;;;0.70;99.90;;;;;;5111338;28;20049;-75
2022/12/12 11:06:35;;;;;;;0.10;0.10;;;0.80;99.90;;;;;;5107633;28;20023;-75
2022/12/12 11:09:23;;;;;;;0.10;0.10;;;0.70;99.90;;;;;;5109088;28;20024;-75
2022/12/12 11:12:14;;;;;;;0.10;0.10;;;0.80;99.90;;;;;;5118372;28;20065;-75
2022/12/12 11:14:49;;;;;;;0.10;0.10;;;0.90;99.90;;;;;;5118253;28;20153;-75
2022/12/12 11:17:29;;;;;;;0.10;0.10;;;1.00;99.90;;;;;;5111064;28;20036;-75
2022/12/12 11:20:00;;;;;;;0.10;0.10;;;1.00;99.90;;;;;;5122209;28;20012;-74
2022/12/12 11:22:30;;;;;;;0.13;0.13;;;0.90;99.90;;;;;;5105474;28;20031;-74
2022/12/12 11:25:00;;;;;;;0.20;0.20;;;0.90;99.90;;;;;;5123462;28;20012;-74
2022/12/12 11:27:39;;;;;;;0.20;0.20;;;0.90;99.90;;;;;;5113786;28;20016;-75
2022/12/12 11:30:34;;;;;;;0.10;0.10;;;0.80;99.90;;;;;;5121450;28;20019;-74
2022/12/12 11:33:03;;;;;;;0.20;0.20;;;0.80;99.90;;;;;;5103961;28;20764;-74
2022/12/12 11:35:32;;;;;;;0.20;0.20;;;0.80;99.90;;;;;;5087061;28;20046;-74
2022/12/12 11:38:22;;;;;;;0.13;0.13;;;0.70;99.90;;;;;;5084528;28;20104;-74
2022/12/12 11:41:25;;;;;;;0.17;0.17;;;0.70;99.90;;;;;;5111162;28;20016;-75
2022/12/12 11:43:52;;;;;;;0.10;0.10;;;0.60;99.90;;;;;;5104614;28;20031;-75
2022/12/12 11:46:44;;;;;;;0.17;0.17;;;0.60;99.90;;;;;;5109737;28;20012;-75
2022/12/12 11:49:18;;;;;;;0.20;0.20;;;0.70;99.90;;;;;;5112921;28;20035;-74
2022/12/12 11:51:43;;;;;;;;;;;0.70;99.90;;;;;;5119143;28;20027;-75
2022/12/12 11:54:33;;;;;;;22.57;21.33;;;0.70;99.90;;;;;;5108900;28;19900;-74
2022/12/12 11:57:13;;;;;;;2.20;2.00;;;0.70;99.90;;;;;;5093577;28;20051;-75
2022/12/12 12:00:04;;;;;;;0.20;0.20;;;0.70;99.90;;;;;;5088709;28;20036;-75
2022/12/12 12:02:49;;;;;;;0.20;0.20;;;0.60;99.90;;;;;;5111568;28;20036;-75
2022/12/12 12:05:58;;;;;;;13.00;12.50;;;0.70;99.90;;;;;;5120534;28;20012;-74
2022/12/12 12:09:04;;;;;;;1.33;1.33;;;0.60;99.90;;;;;;5015653;28;20039;-75
2022/12/12 12:11:49;;;;;;;0.10;0.10;;;0.50;99.90;;;;;;5009515;28;20069;-75
2022/12/12 12:14:53;;;;;;;0.10;0.10;;;0.60;99.90;;;;;;5016211;28;20116;-75
2022/12/12 12:17:56;;;;;;;0.10;0.10;;;0.60;99.90;;;;;;4950583;29;20074;-77
2022/12/12 12:20:45;;;;;;;0.20;0.20;;;0.60;99.90;;;;;;4940927;29;20126;-76
2022/12/12 12:23:35;;;;;;;0.20;0.20;;;0.60;99.90;;;;;;4899026;29;20036;-75
2022/12/12 12:26:34;;;;;;;0.20;0.20;;;0.60;99.90;;;;;;4902583;29;20040;-75
2022/12/12 12:29:26;;;;;;;0.20;0.20;;;0.60;99.90;;;;;;4903899;29;20125;-75
2022/12/12 12:32:02;;;;;;;0.20;0.20;;;0.60;99.90;;;;;;4903968;29;20048;-75
2022/12/12 12:35:03;;;;;;;0.10;0.10;;;0.50;99.90;;;;;;4895280;29;20447;-74
2022/12/12 12:37:35;;;;;;;0.20;0.20;;;0.40;99.90;;;;;;4895261;29;20032;-74
2022/12/12 12:40:32;;;;;;;0.20;0.20;;;0.50;99.90;;;;;;4889879;29;20867;-74
2022/12/12 12:43:17;;;;;;;0.20;0.20;;;0.40;99.90;;;;;;4858257;29;20141;-75
2022/12/12 12:45:56;;;;;;;0.20;0.20;;;0.40;99.90;;;;;;4900097;29;20036;-74
2022/12/12 12:48:36;;;;;;;0.10;0.10;;;0.40;99.90;;;;;;4924842;29;20060;-75
2022/12/12 12:51:16;;;;;;;0.30;0.30;;;0.40;99.90;;;;;;4914703;29;20012;-74
2022/12/12 12:54:12;;;;;;;0.10;0.10;;;0.40;99.90;;;;;;4918063;29;20039;-74
2022/12/12 12:56:45;;;;;;;0.10;0.10;;;0.40;99.90;;;;;;4933981;29;20034;-75
2022/12/12 12:59:19;;;;;;;0.20;0.20;;;0.40;99.90;;;;;;4952564;28;20121;-75
2022/12/12 13:01:49;;;;;;;0.20;0.20;;;0.40;99.90;;;;;;5027736;28;20028;-75
2022/12/12 13:04:30;;;;;;;0.10;0.10;;;0.40;99.90;;;;;;5032326;28;20037;-75
2022/12/12 13:07:12;;;;;;;0.10;0.10;;;0.40;99.90;;;;;;5031559;28;20041;-75
2022/12/12 13:09:48;;;;;;;0.10;0.10;;;0.50;99.90;;;;;;5030401;28;20072;-75
2022/12/12 13:12:45;;;;;;;10.40;9.83;;;0.50;99.90;;;;;;5036813;28;20064;-75
2022/12/12 13:15:48;;;;;;;0.10;0.10;;;0.40;99.90;;;;;;4966691;29;20027;-75
2022/12/12 13:18:46;;;;;;;0.43;0.43;;;0.50;99.90;;;;;;4968333;29;20044;-75
2022/12/12 13:21:18;;;;;;;0.10;0.10;;;0.60;99.90;;;;;;5113847;22;20481;-75
2022/12/12 13:23:56;;;;;;;0.10;0.10;;;0.60;99.90;;;;;;5050419;28;20086;-75
2022/12/12 13:27:01;;;;;;;0.10;0.10;;;0.70;99.90;;;;;;5070073;28;20048;-75
2022/12/12 13:29:46;;;;;;;0.20;0.20;;;0.70;99.90;;;;;;5079679;28;20045;-75
2022/12/12 13:32:30;;;;;;;0.08;0.08;;;3.00;99.90;;;;;;5065863;28;20237;-76
2022/12/12 13:35:02;;;;;;;0.10;0.10;;;2.50;99.90;;;;;;5066717;28;20332;-75
2022/12/12 13:37:31;;;;;;;0.10;0.10;;;2.20;99.90;;;;;;5066767;28;20773;-75
2022/12/12 13:40:03;;;;;;;0.10;0.10;;;1.90;99.90;;;;;;5066172;28;20074;-75
2022/12/12 13:43:03;;;;;;;0.10;0.10;;;1.60;99.90;;;;;;5065869;28;20452;-75
2022/12/12 13:45:50;;;;;;;0.00;0.00;;;1.30;99.90;;;;;;5072533;28;20013;-75
2022/12/12 13:48:26;;;;;;;2.15;2.08;;;1.30;99.90;;;;;;5080595;28;20019;-75
2022/12/12 13:54:13;;;;;;;0.10;0.10;;;1.20;99.90;;;;;;5083759;28;20039;-75
2022/12/12 13:57:04;;;;;;;0.17;0.17;;;1.20;99.90;;;;;;5060643;28;20604;-75
2022/12/12 13:59:53;;;;;;;0.10;0.10;;;1.20;99.90;;;;;;5067009;28;20017;-74